Latest Weather Observations for Cocos Island

IDW60801

Issued at 11:33 am WST Tuesday 27 September 2016 (issued every 30 minutes, with the page automatically refreshed every 10 minutes)

About weather observations | Map of weather stations | Latest weather observations for WA | Other Formats
Station Details ID: 200284 Name: COCOS ISLAND AIRPORT Lat: -12.19 Lon: 96.83 Height: 3.0 m
Data from the previous 72 hours. | See also: Recent months at Cocos Island
Date/Time
WST
Temp
°C
App
Temp
°C
Dew
Point
°C
Rel
Hum
%
Delta-T
°C
Wind Press
QNH
hPa
Press
MSL
hPa
Rain since
9am
mm
Dir  Spd
km/h
Gust
km/h
Spd
kts
Gust
kts
27/11:30am 26.8 22.0 18.3 59 5.4 SE 41 52 22 28 1014.2 - 0.0
27/11:00am 26.2 20.8 18.3 61 5.0 SE 44 59 24 32 1014.4 1014.3 0.0
27/10:51am 25.8 21.6 18.9 65 4.4 SE 39 59 21 32 1014.5 - 0.0
27/10:30am 26.2 21.1 17.6 59 5.4 SE 41 52 22 28 1014.4 - 0.0
27/10:00am 25.6 22.0 18.5 65 4.5 SE 35 46 19 25 1014.2 - 0.0
27/09:30am 24.3 19.6 19.5 74 3.1 SE 43 61 23 33 1014.0 - 0.0
27/09:22am 25.1 20.3 18.5 67 4.2 SE 41 61 22 33 1013.9 - 0.0
27/09:00am 25.5 20.1 17.1 59 5.2 SE 41 54 22 29 1013.6 - 0.0
27/08:30am 25.4 19.7 17.2 60 5.1 SE 43 54 23 29 1013.3 - 0.0
27/08:00am 24.9 19.9 17.9 65 4.4 SE 41 54 22 29 1013.0 1012.9 0.0
27/07:30am 25.1 20.0 16.8 60 5.1 SE 39 50 21 27 1012.5 - 0.0
27/07:00am 24.4 19.4 18.0 67 4.0 SE 41 52 22 28 1012.5 - 0.0
27/06:30am 24.9 19.9 17.9 65 4.4 SE 41 52 22 28 1012.3 - 0.0
27/06:08am 25.0 20.4 17.1 61 4.9 SE 37 56 20 30 1012.0 - 0.0
27/06:00am 25.0 21.0 18.4 66 4.2 SE 37 50 20 27 1012.0 - 0.0
27/05:30am 25.0 20.9 18.2 66 4.3 SE 37 48 20 26 1012.1 - 0.0
27/05:00am 24.9 22.0 19.3 71 3.6 SE 33 46 18 25 1012.1 1012.0 0.0
27/04:30am 25.1 21.5 18.5 67 4.2 SE 35 48 19 26 1012.1 - 0.0
27/04:00am 25.1 21.0 17.4 62 4.8 SE 35 50 19 27 1012.3 - 0.0
27/03:30am 25.2 22.1 18.4 66 4.3 SE 32 41 17 22 1012.6 - 0.0
27/03:00am 25.3 21.4 16.9 59 5.2 SE 33 46 18 25 1012.8 - 0.0
27/02:30am 25.3 21.3 17.6 62 4.8 SE 35 44 19 24 1012.9 - 0.0
27/02:00am 25.3 21.5 16.7 59 5.3 SSE 32 43 17 23 1013.4 1013.3 0.0
27/01:30am 25.1 20.8 17.8 64 4.6 SE 37 52 20 28 1013.8 - 0.0
27/01:00am 25.1 20.8 17.9 64 4.5 SE 37 50 20 27 1014.2 - 0.0
27/12:30am 25.3 21.0 17.8 63 4.7 SE 37 48 20 26 1014.6 - 0.0
27/12:16am 25.1 21.8 18.3 66 4.3 SSE 33 50 18 27 1014.6 - 0.0
27/12:15am 25.1 22.0 18.5 67 4.2 SSE 32 50 17 27 1014.6 - 0.0
27/12:03am 24.8 21.4 19.0 70 3.7 SE 35 48 19 26 1014.8 - 0.0
27/12:00am 24.9 21.3 18.6 68 4.0 SSE 35 48 19 26 1014.8 - 0.0
 
Date/Time
WST
Temp
°C
App
Temp
°C
Dew
Point
°C
Rel
Hum
%
Delta-T
°C
Wind Press
QNH
hPa
Press
MSL
hPa
Rain since
9am
mm
Dir  Spd
km/h
Gust
km/h
Spd
kts
Gust
kts
26/11:30pm 25.1 21.0 18.3 66 4.3 SE 37 50 20 27 1015.0 - 0.0
26/11:11pm 25.1 21.8 19.2 70 3.8 SE 35 54 19 29 1014.8 - 0.0
26/11:00pm 24.7 21.1 18.5 68 3.9 SE 35 48 19 26 1014.6 1014.5 0.0
26/10:57pm 24.8 21.3 18.7 69 3.9 SE 35 48 19 26 1014.6 - 0.0
26/10:45pm 24.1 20.3 18.9 72 3.3 SE 37 56 20 30 1014.5 - 0.0
26/10:38pm 23.6 19.0 19.7 79 2.5 SE 43 56 23 30 1014.7 - 0.0
26/10:30pm 24.6 21.0 19.3 72 3.4 SE 37 50 20 27 1014.5 - 0.0
26/10:00pm 24.7 21.0 19.2 71 3.5 SE 37 50 20 27 1014.3 - 0.0
26/09:30pm 24.4 20.4 19.4 73 3.2 SE 39 57 21 31 1014.1 - 0.0
26/09:18pm 25.0 21.7 19.2 70 3.7 SE 35 54 19 29 1013.7 - 0.0
26/09:00pm 24.8 21.5 19.3 71 3.5 SE 35 52 19 28 1013.6 - 0.0
26/08:42pm 25.1 22.0 19.7 72 3.5 SE 35 54 19 29 1013.5 - 0.0
26/08:30pm 25.1 21.7 19.0 69 3.9 SE 35 46 19 25 1013.4 - 0.0
26/08:00pm 25.0 20.4 18.9 69 3.9 SE 41 56 22 30 1013.1 1013.0 0.0
26/07:30pm 25.3 20.1 18.9 67 4.1 SE 44 54 24 29 1012.5 - 0.0
26/07:00pm 25.6 20.4 18.3 64 4.6 SE 43 63 23 34 1011.9 - 0.0
26/06:51pm 25.6 20.6 18.9 66 4.3 SE 43 63 23 34 1011.7 - 0.0
26/06:30pm 25.7 21.9 19.7 69 3.9 SE 39 50 21 27 1011.6 - 0.0
26/06:00pm 25.6 21.8 19.7 70 3.8 SE 39 54 21 29 1011.5 - 0.0
26/05:35pm 25.6 21.2 19.4 68 4.0 SE 41 59 22 32 1011.4 - 0.0
26/05:30pm 25.7 21.4 19.5 68 4.0 SE 41 57 22 31 1011.4 - 0.0
26/05:00pm 25.9 21.5 19.2 66 4.3 SE 41 54 22 29 1011.3 1011.2 0.0
26/04:49pm 25.9 21.7 19.0 65 4.4 SE 39 57 21 31 1011.3 - 0.0
26/04:30pm 25.7 21.3 19.2 67 4.2 SE 41 56 22 30 1011.3 - 0.0
26/04:03pm 25.3 21.3 20.1 73 3.4 SE 41 61 22 33 1011.4 - 0.0
26/04:00pm 26.1 22.2 19.6 67 4.2 SE 39 54 21 29 1011.3 - 0.0
26/03:35pm 26.5 22.9 20.1 68 4.2 SE 39 57 21 31 1011.5 - 0.0
26/03:30pm 26.5 22.6 20.4 69 4.0 SE 41 57 22 31 1011.5 - 0.0
26/03:00pm 26.9 22.6 20.3 67 4.3 SE 43 57 23 31 1011.8 - 0.0
26/02:30pm 27.1 23.4 19.9 64 4.7 SE 39 54 21 29 1012.0 - 0.0
26/02:00pm 26.2 22.2 20.1 69 4.0 SE 41 61 22 33 1012.4 1012.3 0.0
26/01:57pm 26.1 21.6 19.9 68 4.0 SE 43 61 23 33 1012.4 - 0.0
26/01:30pm 26.0 20.5 19.8 68 4.0 SE 48 61 26 33 1012.7 - 0.0
26/01:23pm 26.3 21.8 20.0 68 4.1 SE 43 61 23 33 1012.7 - 0.0
26/01:00pm 26.2 21.8 20.1 69 4.0 SE 43 59 23 32 1013.1 - 0.0
26/12:42pm 26.3 22.8 20.3 69 3.9 SE 39 57 21 31 1013.3 - 0.0
26/12:30pm 25.7 22.8 20.8 74 3.2 SE 37 52 20 28 1013.4 - 0.0
26/12:12pm 25.1 20.8 19.5 71 3.6 SE 41 59 22 32 1013.6 - 0.0
26/12:00pm 26.4 22.8 20.1 68 4.1 SE 39 52 21 28 1013.7 - 0.0
26/11:30am 25.4 19.9 19.0 67 4.1 SE 46 59 25 32 1013.9 - 0.0
26/11:16am 25.5 21.1 19.3 68 4.0 SE 41 61 22 33 1013.9 - 0.0
26/11:00am 25.5 20.9 19.6 70 3.8 SE 43 57 23 31 1013.9 1013.8 0.0
26/10:30am 25.2 20.1 19.8 72 3.5 SE 46 59 25 32 1013.8 - 0.0
26/10:02am 24.8 20.8 20.2 75 3.0 SE 41 59 22 32 1013.6 - 0.0
26/10:00am 24.4 20.0 20.2 77 2.7 SE 43 59 23 32 1013.6 - 0.0
26/09:47am 24.2 20.0 20.5 80 2.4 SE 43 61 23 33 1013.5 - 0.0
26/09:38am 23.8 18.8 20.1 80 2.4 SE 46 61 25 33 1013.4 - 0.0
26/09:30am 24.9 20.6 19.5 72 3.5 SE 41 56 22 30 1013.1 - 0.0
26/09:00am 25.2 20.8 19.3 70 3.8 SE 41 59 22 32 1012.6 - 0.0
26/08:30am 25.1 20.7 19.2 70 3.8 SE 41 56 22 30 1012.2 - 0.0
26/08:00am 25.0 21.2 19.7 72 3.4 SE 39 57 21 31 1011.9 1011.8 0.0
26/07:30am 24.9 20.4 19.8 73 3.3 SE 43 52 23 28 1011.4 - 0.0
26/07:00am 24.6 20.4 20.6 78 2.6 SE 43 63 23 34 1011.1 - 0.0
26/06:47am 24.9 21.4 20.3 75 3.0 SE 39 57 21 31 1010.9 - 0.0
26/06:30am 24.9 22.0 20.1 74 3.1 SE 35 48 19 26 1010.8 - 0.0
26/06:00am 24.5 21.3 20.2 77 2.8 SE 37 48 20 26 1010.7 - 0.0
26/05:44am 24.1 19.8 20.4 80 2.4 SE 43 61 23 33 1010.8 - 0.0
26/05:30am 24.1 21.4 20.4 80 2.4 SE 35 50 19 27 1010.7 - 0.0
26/05:06am 24.3 21.2 20.5 79 2.5 SE 37 56 20 30 1010.7 - 0.0
26/05:00am 24.5 20.6 20.4 78 2.7 SE 41 54 22 29 1010.8 1010.7 0.0
26/04:30am 24.4 20.0 20.2 77 2.7 SE 43 54 23 29 1011.1 - 0.0
26/04:00am 24.6 22.1 20.1 76 2.9 SE 33 48 18 26 1011.3 - 0.0
26/03:58am 24.5 21.9 20.7 79 2.5 SE 35 54 19 29 1011.3 - 0.0
26/03:30am 25.1 21.9 20.3 74 3.1 SE 37 48 20 26 1011.6 - 0.0
26/03:00am 25.1 20.7 19.3 70 3.7 SE 41 54 22 29 1011.9 - 0.0
26/02:30am 25.5 21.0 19.1 67 4.1 SE 41 54 22 29 1012.1 - 0.0
26/02:00am 24.7 20.9 20.6 78 2.7 SE 41 54 22 29 1012.5 1012.4 0.0
26/01:30am 25.3 21.5 19.7 71 3.6 SE 39 50 21 27 1012.9 - 0.0
26/01:00am 25.6 21.2 19.2 67 4.1 SE 41 54 22 29 1013.3 - 0.0
26/12:30am 25.6 20.5 18.5 65 4.5 SE 43 52 23 28 1013.4 - 0.0
26/12:00am 25.4 21.0 19.3 69 3.9 SE 41 52 22 28 1013.5 - 0.0
 
Date/Time
WST
Temp
°C
App
Temp
°C
Dew
Point
°C
Rel
Hum
%
Delta-T
°C
Wind Press
QNH
hPa
Press
MSL
hPa
Rain since
9am
mm
Dir  Spd
km/h
Gust
km/h
Spd
kts
Gust
kts
25/11:34pm 25.1 20.6 20.2 74 3.2 SE 44 57 24 31 1013.6 - 0.0
25/11:30pm 25.0 20.6 20.2 74 3.1 SE 43 57 23 31 1013.5 - 0.0
25/11:16pm 25.1 20.3 20.5 75 3.0 SE 46 56 25 30 1013.6 - 0.0
25/11:00pm 25.4 20.7 19.8 71 3.6 SE 44 56 24 30 1013.7 1013.6 0.0
25/10:30pm 25.1 21.3 20.5 75 3.0 SE 41 54 22 29 1013.6 - 0.0
25/10:00pm 23.9 19.1 20.5 81 2.2 SE 46 56 25 30 1013.5 - 0.0
25/09:30pm 24.4 21.0 20.6 79 2.5 SE 39 50 21 27 1013.4 - 0.0
25/09:27pm 24.2 20.4 20.5 80 2.4 SE 41 59 22 32 1013.4 - 0.0
25/09:00pm 24.2 19.6 20.0 77 2.7 SE 44 61 24 33 1013.2 - 0.0
25/08:38pm 24.0 19.1 20.3 80 2.4 SE 46 65 25 35 1013.0 - 0.0
25/08:35pm 24.6 20.4 20.5 78 2.7 SE 43 61 23 33 1012.9 - 0.0
25/08:30pm 24.2 20.8 20.7 81 2.3 SE 39 50 21 27 1012.8 - 0.0
25/08:26pm 23.7 19.5 20.9 84 1.8 SE 44 63 24 34 1012.9 - 0.0
25/08:22pm 23.4 18.9 21.1 87 1.5 SE 46 63 25 34 1012.9 - 0.0
25/08:17pm 24.5 20.2 20.7 79 2.5 SE 44 63 24 34 1012.7 - 0.0
25/08:00pm 24.5 20.0 20.3 77 2.7 SE 44 57 24 31 1012.5 1012.4 0.0
25/07:30pm 25.2 21.5 20.0 73 3.4 SE 39 52 21 28 1012.0 - 0.0
25/07:12pm 24.8 19.7 19.8 74 3.2 SE 46 69 25 37 1011.8 - 0.0
25/07:00pm 24.1 19.4 20.6 81 2.3 SE 46 63 25 34 1011.7 - 0.0
25/06:38pm 24.8 20.3 20.0 74 3.1 SE 43 61 23 33 1011.4 - 0.0
25/06:30pm 24.4 20.5 20.4 78 2.6 SE 41 57 22 31 1011.4 - 0.0
25/06:00pm 25.0 20.3 19.4 71 3.6 SE 43 63 23 34 1011.3 - 0.0
25/05:30pm 25.0 20.3 19.4 71 3.6 SE 43 61 23 33 1011.1 - 0.0
25/05:05pm 24.8 21.1 20.0 74 3.1 SE 39 59 21 32 1010.9 - 0.0
25/05:00pm 25.1 20.8 19.5 71 3.6 SE 41 54 22 29 1010.9 1010.8 0.0
25/04:49pm 24.7 20.0 19.9 74 3.1 SE 44 63 24 34 1010.7 - 0.0
25/04:30pm 25.7 21.4 18.6 65 4.5 SE 39 52 21 28 1010.7 - 0.0
25/04:00pm 25.8 20.5 18.2 63 4.8 SE 43 56 23 30 1010.7 - 0.0
25/03:30pm 25.7 21.0 19.5 68 4.0 SE 43 56 23 30 1010.8 - 0.0
25/03:00pm 25.5 21.1 19.4 69 3.9 SSE 41 56 22 30 1010.8 - 0.0
25/02:30pm 25.8 21.2 20.1 71 3.7 SE 44 57 24 31 1010.9 - 0.0
25/02:18pm 26.0 21.9 20.0 69 3.9 SSE 41 61 22 33 1010.9 - 0.0
25/02:00pm 25.9 21.9 20.1 70 3.8 SSE 41 57 22 31 1011.1 1011.0 0.0
25/01:30pm 26.2 21.1 19.9 68 4.1 SE 46 59 25 32 1011.2 - 0.0
25/01:00pm 26.5 22.1 20.1 68 4.2 SSE 43 61 23 33 1011.4 - 0.0
25/12:43pm 26.5 21.6 19.4 65 4.6 SE 44 63 24 34 1011.7 - 0.0
25/12:30pm 26.3 20.9 19.1 64 4.6 SE 46 61 25 33 1011.9 - 0.0
25/12:09pm 26.8 21.4 19.2 63 4.9 SE 46 65 25 35 1011.9 - 0.0
25/12:00pm 27.2 21.8 19.3 62 5.1 SE 46 61 25 33 1012.0 - 0.0
25/11:40am 27.2 22.4 19.7 63 4.9 SE 44 63 24 34 1012.3 - 0.0
25/11:30am 26.3 20.7 18.8 63 4.8 SE 46 61 25 33 1012.5 - 0.0
25/11:00am 26.1 20.4 19.3 66 4.4 SE 48 63 26 34 1012.6 1012.5 0.0
25/10:30am 25.7 20.9 19.2 67 4.2 SE 43 56 23 30 1012.7 - 0.0
25/10:00am 24.4 20.4 20.2 77 2.7 SE 41 56 22 30 1012.9 - 0.0
25/09:30am 24.7 21.1 20.1 75 3.0 SE 39 61 21 33 1012.9 - 0.0
25/09:07am 24.5 19.8 19.5 73 3.2 SSE 43 61 23 33 1012.7 - 0.0
25/09:01am 24.5 20.7 20.5 78 2.6 SE 41 61 22 33 1012.6 - 0.0
25/09:00am 24.7 21.3 20.6 78 2.7 SE 39 56 21 30 1012.6 - 0.0
25/08:51am 23.9 20.2 20.7 82 2.1 SE 41 56 22 30 1012.5 - 0.0
25/08:33am 23.8 19.8 20.9 84 1.9 SE 43 61 23 33 1012.3 - 0.0
25/08:31am 24.3 20.6 20.8 81 2.3 SSE 41 61 22 33 1012.2 - 0.0
25/08:30am 24.8 21.3 20.3 76 2.9 SSE 39 54 21 29 1012.2 - 0.0
25/08:01am 25.3 21.5 18.9 67 4.1 SSE 37 56 20 30 1011.6 - 0.0
25/08:00am 25.2 21.4 18.9 68 4.0 SSE 37 54 20 29 1011.7 1011.6 0.0
25/07:30am 24.9 20.4 19.8 73 3.3 SE 43 54 23 29 1011.3 - 0.0
25/07:00am 25.0 20.5 19.1 70 3.8 SSE 41 54 22 29 1010.8 - 0.0
25/06:41am 24.8 21.0 19.7 73 3.3 SE 39 56 21 30 1010.7 - 0.0
25/06:30am 24.7 20.1 19.7 73 3.2 SE 43 57 23 31 1010.6 - 0.0
25/06:20am 24.8 21.3 19.7 73 3.3 SSE 37 57 20 31 1010.5 - 0.0
25/06:00am 25.1 21.2 19.5 71 3.6 SSE 39 54 21 29 1010.3 - 0.0
25/05:30am 24.7 20.9 19.7 73 3.2 SSE 39 56 21 30 1010.1 - 0.0
25/05:11am 25.1 21.2 18.7 67 4.1 SSE 37 57 20 31 1010.1 - 0.0
25/05:00am 25.1 21.6 19.5 71 3.6 SSE 37 48 20 26 1010.3 1010.2 0.0
25/04:30am 25.1 21.8 19.2 70 3.8 SSE 35 52 19 28 1010.4 - 0.0
25/04:11am 25.1 21.3 19.0 69 3.9 SSE 37 57 20 31 1010.4 - 0.0
25/04:00am 25.2 21.1 19.1 69 3.9 SSE 39 52 21 28 1010.4 - 0.0
25/03:30am 25.2 22.0 19.5 70 3.7 SSE 35 44 19 24 1010.6 - 0.0
25/03:00am 25.1 22.3 19.5 71 3.6 SSE 33 46 18 25 1010.9 - 0.0
25/02:35am 25.2 22.0 19.5 70 3.7 SSE 35 54 19 29 1011.1 - 0.0
25/02:30am 25.2 21.8 19.8 72 3.5 SSE 37 54 20 29 1011.2 - 0.0
25/02:00am 25.3 22.5 20.2 73 3.3 SSE 35 46 19 25 1011.4 1011.3 0.0
25/01:30am 25.4 22.1 20.0 72 3.5 SSE 37 52 20 28 1011.5 - 0.0
25/01:00am 25.4 22.2 20.3 73 3.3 SSE 37 52 20 28 1011.4 - 0.0
25/12:30am 25.5 21.9 20.1 72 3.5 SSE 39 56 21 30 1011.6 - 0.0
25/12:00am 25.4 21.4 20.2 73 3.4 SE 41 56 22 30 1011.7 - 0.0
 
Date/Time
WST
Temp
°C
App
Temp
°C
Dew
Point
°C
Rel
Hum
%
Delta-T
°C
Wind Press
QNH
hPa
Press
MSL
hPa
Rain since
9am
mm
Dir  Spd
km/h
Gust
km/h
Spd
kts
Gust
kts
24/11:48pm 25.3 21.9 20.6 75 3.1 SE 39 57 21 31 1011.7 - 0.0
24/11:30pm 25.2 21.0 20.5 75 3.1 SE 43 56 23 30 1011.7 - 0.0
24/11:00pm 25.4 21.3 20.7 75 3.1 SE 43 54 23 29 1011.9 1011.8 0.0
24/10:40pm 25.5 21.1 20.5 74 3.3 SE 44 59 24 32 1011.7 - 0.0
24/10:30pm 25.5 21.7 20.5 74 3.3 SE 41 54 22 29 1011.7 - 0.0
24/10:13pm 25.5 21.1 20.1 72 3.5 SE 43 54 23 29 1011.6 - 0.0
24/10:00pm 25.6 21.2 20.4 73 3.4 SE 44 59 24 32 1011.5 - 0.0
24/09:30pm 25.7 20.9 20.5 73 3.4 SE 46 57 25 31 1011.3 - 0.0
24/09:00pm 25.7 21.3 20.5 73 3.4 SE 44 61 24 33 1011.1 - 0.0
24/08:55pm 25.7 21.7 21.0 75 3.1 SE 43 61 23 33 1010.9 - 0.0
24/08:30pm 25.6 21.9 20.7 74 3.2 SE 41 56 22 30 1010.6 - 0.0
24/08:00pm 25.6 22.1 21.1 76 3.0 SE 41 54 22 29 1010.4 1010.3 0.0
24/07:30pm 25.4 21.9 21.2 77 2.8 SE 41 56 22 30 1010.2 - 0.0
24/07:00pm 25.8 23.1 20.5 72 3.5 SSE 35 48 19 26 1010.0 - 0.0
24/06:51pm 25.6 23.0 20.6 74 3.3 SE 35 54 19 29 1009.9 - 0.0
24/06:30pm 25.9 23.3 20.7 73 3.4 SSE 35 48 19 26 1009.8 - 0.0
24/06:00pm 26.0 23.4 20.7 72 3.5 SSE 35 48 19 26 1009.6 - 0.0
24/05:30pm 26.2 23.9 20.6 71 3.7 SSE 33 44 18 24 1009.6 - 0.0
24/05:00pm 26.4 24.1 20.5 70 3.9 SSE 33 48 18 26 1009.6 1009.5 0.0
24/04:30pm 26.7 24.6 21.0 71 3.8 SSE 33 44 18 24 1009.6 - 0.0
24/04:00pm 26.8 24.5 20.6 69 4.1 SE 33 44 18 24 1009.8 - 0.0
24/03:30pm 26.8 24.7 20.9 70 3.9 SSE 33 43 18 23 1009.9 - 0.0
24/03:00pm 27.1 25.1 21.1 69 4.0 SSE 33 44 18 24 1010.2 - 0.0
24/02:30pm 27.1 25.7 21.2 70 3.9 SSE 30 43 16 23 1010.5 - 0.0
24/02:29pm 27.3 25.9 21.1 69 4.1 SSE 30 41 16 22 1010.5 - 0.0
24/02:10pm 27.7 25.9 21.1 67 4.4 SSE 32 39 17 21 1010.6 - 0.0
24/02:00pm 28.2 26.6 21.6 67 4.4 SE 32 41 17 22 1010.7 1010.6 0.0
24/01:30pm 28.0 25.8 20.4 63 5.0 SE 32 41 17 22 1011.1 - 0.0

Other Formats:

Comma delimited format used in spreadsheet applications
http://www.bom.gov.au/fwo/IDW60801/IDW60801.96996.axf

JavaScript Object Notation format (JSON) in row-major order
http://www.bom.gov.au/fwo/IDW60801/IDW60801.96996.json